createdAt,value
2023-03-20T00:00:09.242Z,12.70
2023-03-20T00:02:30.829Z,12.62
2023-03-20T00:04:52.337Z,12.59
2023-03-20T00:07:13.829Z,12.52
2023-03-20T00:09:35.556Z,12.25
2023-03-20T00:11:57.123Z,12.35
2023-03-20T00:14:22.308Z,12.39
2023-03-20T00:16:45.856Z,12.43
2023-03-20T00:19:16.379Z,12.41
2023-03-20T00:21:37.881Z,12.51
2023-03-20T00:23:59.347Z,12.45
2023-03-20T00:26:25.709Z,12.52
2023-03-20T00:28:48.811Z,12.64
2023-03-20T00:31:33.040Z,12.59
2023-03-20T00:33:57.261Z,12.59
2023-03-20T00:36:18.831Z,12.68
2023-03-20T00:38:40.260Z,12.63
2023-03-20T00:41:01.951Z,12.67
2023-03-20T00:43:24.205Z,12.62
2023-03-20T00:45:46.512Z,12.69
2023-03-20T00:48:13.126Z,12.56
2023-03-20T00:50:34.815Z,12.67
2023-03-20T00:52:57.984Z,12.71
2023-03-20T00:55:22.031Z,12.82
2023-03-20T00:57:54.039Z,12.81
2023-03-20T01:00:39.633Z,12.84
2023-03-20T01:03:06.016Z,12.79
2023-03-20T01:05:29.112Z,12.72
2023-03-20T01:07:51.106Z,12.65
2023-03-20T01:10:13.677Z,12.46
2023-03-20T01:12:35.396Z,12.62
2023-03-20T01:14:58.687Z,12.68
2023-03-20T01:17:24.415Z,12.56
2023-03-20T01:19:46.323Z,12.63
2023-03-20T01:22:07.984Z,12.64
2023-03-20T01:24:29.426Z,12.45
2023-03-20T01:26:52.735Z,12.49
2023-03-20T01:29:16.927Z,12.50
2023-03-20T01:31:38.773Z,12.53
2023-03-20T01:34:00.228Z,12.53
2023-03-20T01:36:23.521Z,12.43
2023-03-20T01:38:45.340Z,12.38
2023-03-20T01:41:12.839Z,12.42
2023-03-20T01:43:35.898Z,12.46
2023-03-20T01:46:02.893Z,12.44
2023-03-20T01:48:27.634Z,12.50
2023-03-20T01:50:49.155Z,12.41
2023-03-20T01:53:20.195Z,12.47
2023-03-20T01:55:43.566Z,12.31
2023-03-20T01:58:10.329Z,12.33
2023-03-20T02:00:32.149Z,12.39
2023-03-20T02:02:54.972Z,12.08
2023-03-20T02:05:20.298Z,12.23
2023-03-20T02:07:45.655Z,12.34
2023-03-20T02:10:14.505Z,12.35
2023-03-20T02:12:36.434Z,12.36
2023-03-20T02:14:58.708Z,12.39
2023-03-20T02:17:20.521Z,12.44
2023-03-20T02:20:14.564Z,12.43
2023-03-20T02:22:47.952Z,12.45
2023-03-20T02:25:34.671Z,12.41
2023-03-20T02:28:33.341Z,12.40
2023-03-20T02:31:14.688Z,12.42
2023-03-20T02:34:02.135Z,12.41
2023-03-20T02:36:38.816Z,12.42
2023-03-20T02:39:06.520Z,12.46
2023-03-20T02:41:32.965Z,12.44
2023-03-20T02:44:22.954Z,12.51
2023-03-20T02:47:07.939Z,12.36
2023-03-20T02:49:54.191Z,12.28
2023-03-20T02:52:44.642Z,12.23
2023-03-20T02:55:16.804Z,12.31
2023-03-20T02:57:45.829Z,12.18
2023-03-20T03:00:15.804Z,11.95
2023-03-20T03:02:42.742Z,11.73
2023-03-20T03:05:11.273Z,11.69
2023-03-20T03:07:35.405Z,11.67
2023-03-20T03:10:01.613Z,11.83
2023-03-20T03:12:32.173Z,11.94
2023-03-20T03:14:57.022Z,11.95
2023-03-20T03:17:22.253Z,11.97
2023-03-20T03:19:50.959Z,12.11
2023-03-20T03:22:12.674Z,12.16
2023-03-20T03:24:41.419Z,12.40
2023-03-20T03:27:13.496Z,12.60
2023-03-20T03:29:37.341Z,12.60
2023-03-20T03:31:58.911Z,12.32
2023-03-20T03:34:22.624Z,12.27
2023-03-20T03:36:54.884Z,12.31
2023-03-20T03:39:38.275Z,12.26
2023-03-20T03:42:33.972Z,11.99
2023-03-20T03:45:15.078Z,12.08
2023-03-20T03:47:54.154Z,12.18
2023-03-20T03:50:53.493Z,12.22
2023-03-20T03:53:20.281Z,12.21
2023-03-20T03:55:46.011Z,12.02
2023-03-20T03:58:16.271Z,11.97
2023-03-20T04:00:42.233Z,12.12
2023-03-20T04:03:06.253Z,12.11
2023-03-20T04:05:33.252Z,12.03
2023-03-20T04:07:58.245Z,12.08
2023-03-20T04:10:19.745Z,11.95
2023-03-20T04:12:43.470Z,12.02
2023-03-20T04:15:05.549Z,12.11
2023-03-20T04:17:27.068Z,12.13
2023-03-20T04:19:48.596Z,11.89
2023-03-20T04:22:10.370Z,11.83
2023-03-20T04:24:31.818Z,11.88
2023-03-20T04:26:53.325Z,11.86
2023-03-20T04:29:16.030Z,11.77
2023-03-20T04:31:37.522Z,11.75
2023-03-20T04:33:59.059Z,11.71
2023-03-20T04:36:20.881Z,11.44
2023-03-20T04:38:50.608Z,11.46
2023-03-20T04:41:12.153Z,11.30
2023-03-20T04:43:33.669Z,11.15
2023-03-20T04:45:55.311Z,11.10
2023-03-20T04:48:16.840Z,11.07
2023-03-20T04:50:38.410Z,11.20
2023-03-20T04:52:59.954Z,11.25
2023-03-20T04:55:22.457Z,11.29
2023-03-20T04:57:43.938Z,11.26
2023-03-20T05:00:06.076Z,11.30
2023-03-20T05:02:27.653Z,11.42
2023-03-20T05:04:49.138Z,11.61
2023-03-20T05:07:10.841Z,11.70
2023-03-20T05:09:32.296Z,11.75
2023-03-20T05:11:53.746Z,11.75
2023-03-20T05:14:15.377Z,11.71
2023-03-20T05:16:36.889Z,11.94
2023-03-20T05:18:58.564Z,12.10
2023-03-20T05:21:20.080Z,12.08
2023-03-20T05:23:41.546Z,12.03
2023-03-20T05:26:03.197Z,11.96
2023-03-20T05:28:24.832Z,11.86
2023-03-20T05:30:46.343Z,11.96
2023-03-20T05:33:08.223Z,12.05
2023-03-20T05:35:29.987Z,11.98
2023-03-20T05:37:51.446Z,11.79
2023-03-20T05:40:15.776Z,11.86
2023-03-20T05:42:37.228Z,11.60
2023-03-20T05:44:58.678Z,11.60
2023-03-20T05:47:20.604Z,11.72
2023-03-20T05:49:42.046Z,11.52
2023-03-20T05:52:03.618Z,11.25
2023-03-20T05:54:25.283Z,11.21
2023-03-20T05:56:47.043Z,11.25
2023-03-20T05:59:08.644Z,11.26
2023-03-20T06:01:30.262Z,11.33
2023-03-20T06:03:51.853Z,11.31
2023-03-20T06:06:13.398Z,11.29
2023-03-20T06:08:36.483Z,11.33
2023-03-20T06:10:57.971Z,11.43
2023-03-20T06:13:19.607Z,11.48
2023-03-20T06:15:41.122Z,11.51
2023-03-20T06:18:02.726Z,11.71
2023-03-20T06:20:24.850Z,11.84
2023-03-20T06:22:46.768Z,11.80
2023-03-20T06:25:08.604Z,11.75
2023-03-20T06:27:31.304Z,11.91
2023-03-20T06:29:52.778Z,12.03
2023-03-20T06:32:14.821Z,12.04
2023-03-20T06:34:36.589Z,12.06
2023-03-20T06:36:58.021Z,12.09
2023-03-20T06:39:19.457Z,12.18
2023-03-20T06:41:41.111Z,11.99
2023-03-20T06:44:03.906Z,11.80
2023-03-20T06:46:25.490Z,11.73
2023-03-20T06:48:47.306Z,11.75
2023-03-20T06:51:09.127Z,11.82
2023-03-20T06:53:30.911Z,12.01
2023-03-20T06:55:52.720Z,11.82
2023-03-20T06:58:14.545Z,11.83
2023-03-20T07:00:35.991Z,11.86
2023-03-20T07:02:57.527Z,12.04
2023-03-20T07:05:20.461Z,12.01
2023-03-20T07:07:42.133Z,12.07
2023-03-20T07:10:04.674Z,11.97
2023-03-20T07:12:28.692Z,11.90
2023-03-20T07:14:50.142Z,11.98
2023-03-20T07:17:12.773Z,11.93
2023-03-20T07:19:35.005Z,11.95
2023-03-20T07:22:03.705Z,11.93
2023-03-20T07:24:25.181Z,11.96
2023-03-20T07:26:47.074Z,12.15
2023-03-20T07:29:08.504Z,12.07
2023-03-20T07:31:31.226Z,12.13
2023-03-20T07:33:52.766Z,11.95
2023-03-20T07:36:14.374Z,11.81
2023-03-20T07:38:35.783Z,11.85
2023-03-20T07:40:57.239Z,11.70
2023-03-20T07:43:18.737Z,11.73
2023-03-20T07:45:40.293Z,11.64
2023-03-20T07:48:01.814Z,11.60
2023-03-20T07:50:23.315Z,11.58
2023-03-20T07:52:48.641Z,11.66
2023-03-20T07:55:10.182Z,11.65
2023-03-20T07:57:31.858Z,11.51
2023-03-20T07:59:53.469Z,11.29
2023-03-20T08:02:16.285Z,11.47
2023-03-20T08:04:37.799Z,11.48
2023-03-20T08:06:59.481Z,11.56
2023-03-20T08:09:21.093Z,11.52
2023-03-20T08:11:42.625Z,11.65
2023-03-20T08:14:04.064Z,11.69
2023-03-20T08:16:26.033Z,11.72
2023-03-20T08:18:47.577Z,11.69
2023-03-20T08:21:09.601Z,11.73
2023-03-20T08:23:31.123Z,11.93
2023-03-20T08:25:54.248Z,11.98
2023-03-20T08:28:16.301Z,11.95
2023-03-20T08:30:37.990Z,12.13
2023-03-20T08:32:59.621Z,11.97
2023-03-20T08:35:32.536Z,12.17
2023-03-20T08:37:54.568Z,12.36
2023-03-20T08:40:16.966Z,12.43
2023-03-20T08:42:38.764Z,12.42
2023-03-20T08:45:00.389Z,12.33
2023-03-20T08:47:22.377Z,12.35
2023-03-20T08:49:44.064Z,12.38
2023-03-20T08:52:06.077Z,12.35
2023-03-20T08:54:27.672Z,12.18
2023-03-20T08:56:49.207Z,12.29
2023-03-20T08:59:10.770Z,12.33
2023-03-20T09:01:47.836Z,12.31
2023-03-20T09:04:11.912Z,12.23
2023-03-20T09:06:36.898Z,12.22
2023-03-20T09:08:58.331Z,12.23
2023-03-20T09:11:19.771Z,12.27
2023-03-20T09:13:41.519Z,12.26
2023-03-20T09:16:03.734Z,12.36
2023-03-20T09:18:25.718Z,12.37
2023-03-20T09:20:48.348Z,12.48
2023-03-20T09:23:10.077Z,12.48
2023-03-20T09:25:31.500Z,12.57
2023-03-20T09:27:55.377Z,12.68
2023-03-20T09:30:17.169Z,12.70
2023-03-20T09:32:38.672Z,12.77
2023-03-20T09:35:00.342Z,12.73
2023-03-20T09:37:21.856Z,12.57
2023-03-20T09:39:43.351Z,12.55
2023-03-20T09:42:22.307Z,12.68
2023-03-20T09:45:11.162Z,12.62
2023-03-20T09:47:41.954Z,12.60
2023-03-20T09:50:25.874Z,12.63
2023-03-20T09:52:56.162Z,12.60
2023-03-20T09:55:23.331Z,12.83
2023-03-20T09:57:52.523Z,12.99
2023-03-20T10:00:27.527Z,13.11
2023-03-20T10:02:54.365Z,13.40
2023-03-20T10:05:46.201Z,13.31
2023-03-20T10:08:18.944Z,13.35
2023-03-20T10:11:03.530Z,13.77
2023-03-20T10:13:39.303Z,13.78
2023-03-20T10:16:42.627Z,13.86
2023-03-20T10:19:21.256Z,13.58
2023-03-20T10:21:49.473Z,13.30
2023-03-20T10:24:21.221Z,13.34
2023-03-20T10:26:42.970Z,13.36
2023-03-20T10:29:14.684Z,13.46
2023-03-20T10:31:41.581Z,13.50
2023-03-20T10:34:31.748Z,13.54
2023-03-20T10:37:30.473Z,13.58
2023-03-20T10:40:01.004Z,13.50
2023-03-20T10:42:30.513Z,13.40
2023-03-20T10:44:58.591Z,13.50
2023-03-20T10:47:24.496Z,13.41
2023-03-20T10:49:51.834Z,13.43
2023-03-20T10:52:18.163Z,13.20
2023-03-20T10:54:45.172Z,13.19
2023-03-20T10:57:14.934Z,13.15
2023-03-20T10:59:48.939Z,13.23
2023-03-20T11:02:12.817Z,13.69
2023-03-20T11:04:34.262Z,13.73
2023-03-20T11:07:13.922Z,14.02
2023-03-20T11:09:35.503Z,14.02
2023-03-20T11:11:59.227Z,14.11
2023-03-20T11:14:23.442Z,14.39
2023-03-20T11:16:52.066Z,14.81
2023-03-20T11:19:14.550Z,14.87
2023-03-20T11:21:45.813Z,15.07
2023-03-20T11:24:24.097Z,14.95
2023-03-20T11:26:45.583Z,14.78
2023-03-20T11:29:13.317Z,15.02
2023-03-20T11:31:38.412Z,15.13
2023-03-20T11:34:26.587Z,15.52
2023-03-20T11:37:09.766Z,15.21
2023-03-20T11:39:33.101Z,15.52
2023-03-20T11:41:56.910Z,15.60
2023-03-20T11:44:38.498Z,15.55
2023-03-20T11:47:20.571Z,15.52
2023-03-20T11:49:47.917Z,15.56
2023-03-20T11:52:25.009Z,15.17
2023-03-20T11:54:50.441Z,15.00
2023-03-20T11:57:31.287Z,14.86
2023-03-20T11:59:53.386Z,14.85
2023-03-20T12:02:23.639Z,15.14
2023-03-20T12:04:47.439Z,15.54
2023-03-20T12:07:16.341Z,15.65
2023-03-20T12:10:01.400Z,15.30
2023-03-20T12:12:42.097Z,15.54
2023-03-20T12:15:08.149Z,15.56
2023-03-20T12:17:55.831Z,15.87
2023-03-20T12:20:45.073Z,15.92
2023-03-20T12:23:13.105Z,15.88
2023-03-20T12:25:37.594Z,15.58
2023-03-20T12:28:17.930Z,14.95
2023-03-20T12:30:53.857Z,14.88
2023-03-20T12:33:49.343Z,14.65
2023-03-20T12:36:15.127Z,14.29
2023-03-20T12:38:36.683Z,13.85
2023-03-20T12:41:11.868Z,13.88
2023-03-20T12:43:47.516Z,14.14
2023-03-20T12:46:22.732Z,14.20
2023-03-20T12:48:55.860Z,14.04
2023-03-20T12:51:43.094Z,14.19
2023-03-20T12:54:19.670Z,14.46
2023-03-20T12:56:56.538Z,14.56
2023-03-20T12:59:26.544Z,14.58
2023-03-20T13:02:12.536Z,14.56
2023-03-20T13:04:59.464Z,14.46
2023-03-20T13:07:25.947Z,14.24
2023-03-20T13:09:57.287Z,14.08
2023-03-20T13:12:37.452Z,14.03
2023-03-20T13:15:05.290Z,14.24
2023-03-20T13:17:45.506Z,14.51
2023-03-20T13:20:22.118Z,14.50
2023-03-20T13:23:05.100Z,14.44
2023-03-20T13:25:48.986Z,14.42
2023-03-20T13:28:31.035Z,14.48
2023-03-20T13:31:16.570Z,14.62
2023-03-20T13:33:43.456Z,14.77
2023-03-20T13:36:26.677Z,15.19
2023-03-20T13:38:55.691Z,15.34
2023-03-20T13:41:17.556Z,15.23
2023-03-20T13:43:54.248Z,15.07
2023-03-20T13:46:23.886Z,14.88
2023-03-20T13:48:45.868Z,15.25
2023-03-20T13:51:29.323Z,14.96
2023-03-20T13:54:18.167Z,15.09
2023-03-20T13:56:42.542Z,14.87
2023-03-20T13:59:26.909Z,14.89
2023-03-20T14:02:00.943Z,15.12
2023-03-20T14:04:24.664Z,15.23
2023-03-20T14:06:53.042Z,15.04
2023-03-20T14:09:35.720Z,15.07
2023-03-20T14:12:02.287Z,14.79
2023-03-20T14:14:31.143Z,14.77
2023-03-20T14:17:21.064Z,14.98
2023-03-20T14:19:42.762Z,14.66
2023-03-20T14:22:05.482Z,14.85
2023-03-20T14:24:28.320Z,14.93
2023-03-20T14:26:55.266Z,15.29
2023-03-20T14:29:16.645Z,15.63
2023-03-20T14:31:42.262Z,15.49
2023-03-20T14:34:12.807Z,15.42
2023-03-20T14:36:59.373Z,15.54
2023-03-20T14:39:48.405Z,15.74
2023-03-20T14:42:25.225Z,15.71
2023-03-20T14:45:18.377Z,15.63
2023-03-20T14:47:52.578Z,15.90
2023-03-20T14:50:32.943Z,15.84
2023-03-20T14:53:16.294Z,15.86
2023-03-20T14:55:56.088Z,15.89
2023-03-20T14:58:53.313Z,15.65
2023-03-20T15:01:24.724Z,15.38
2023-03-20T15:03:51.433Z,15.23
2023-03-20T15:06:12.996Z,15.03
2023-03-20T15:08:42.180Z,14.97
2023-03-20T15:11:08.910Z,14.66
2023-03-20T15:13:31.112Z,14.98
2023-03-20T15:16:05.317Z,14.84
2023-03-20T15:18:27.834Z,15.10
2023-03-20T15:20:49.422Z,15.13
2023-03-20T15:23:11.041Z,14.96
2023-03-20T15:25:38.493Z,14.54
2023-03-20T15:28:00.161Z,14.72
2023-03-20T15:30:23.111Z,14.61
2023-03-20T15:32:46.095Z,14.75
2023-03-20T15:35:08.500Z,14.72
2023-03-20T15:37:30.028Z,14.45
2023-03-20T15:39:56.236Z,14.35
2023-03-20T15:42:21.886Z,14.46
2023-03-20T15:44:45.758Z,14.62
2023-03-20T15:47:07.153Z,14.19
2023-03-20T15:49:31.094Z,14.11
2023-03-20T15:51:54.523Z,13.88
2023-03-20T15:54:17.949Z,13.71
2023-03-20T15:56:43.188Z,13.67
2023-03-20T15:59:04.676Z,13.45
2023-03-20T16:01:26.540Z,13.39
2023-03-20T16:03:49.392Z,13.18
2023-03-20T16:06:15.374Z,13.23
2023-03-20T16:08:36.931Z,13.27
2023-03-20T16:11:04.678Z,13.18
2023-03-20T16:13:28.621Z,13.30
2023-03-20T16:15:50.951Z,13.18
2023-03-20T16:18:16.538Z,13.02
2023-03-20T16:20:45.102Z,12.99
2023-03-20T16:23:08.858Z,12.73
2023-03-20T16:25:30.593Z,12.66
2023-03-20T16:27:53.364Z,12.39
2023-03-20T16:30:19.025Z,12.40
2023-03-20T16:32:42.679Z,12.34
2023-03-20T16:35:13.545Z,12.27
2023-03-20T16:37:43.632Z,12.18
2023-03-20T16:40:33.969Z,12.06
2023-03-20T16:42:57.247Z,11.98
2023-03-20T16:45:26.562Z,11.77
2023-03-20T16:47:49.054Z,11.71
2023-03-20T16:50:20.256Z,11.64
2023-03-20T16:52:46.641Z,11.54
2023-03-20T16:55:15.911Z,11.48
2023-03-20T16:57:37.648Z,11.46
2023-03-20T17:00:27.379Z,11.36
2023-03-20T17:02:59.748Z,11.32
2023-03-20T17:05:22.125Z,11.29
2023-03-20T17:07:43.601Z,11.24
2023-03-20T17:10:17.216Z,11.28
2023-03-20T17:12:40.764Z,11.34
2023-03-20T17:15:02.255Z,11.37
2023-03-20T17:17:25.108Z,11.32
2023-03-20T17:19:49.344Z,11.14
2023-03-20T17:22:15.063Z,11.09
2023-03-20T17:24:36.470Z,11.03
2023-03-20T17:26:58.261Z,10.91
2023-03-20T17:29:19.724Z,10.73
2023-03-20T17:31:41.269Z,10.65
2023-03-20T17:34:02.701Z,10.77
2023-03-20T17:36:30.577Z,10.53
2023-03-20T17:38:52.839Z,10.54
2023-03-20T17:41:16.300Z,10.50
2023-03-20T17:43:37.741Z,10.46
2023-03-20T17:45:59.419Z,10.42
2023-03-20T17:48:21.578Z,10.37
2023-03-20T17:50:45.559Z,10.31
2023-03-20T17:53:13.762Z,10.32
2023-03-20T17:55:35.381Z,10.39
2023-03-20T17:57:56.903Z,10.36
2023-03-20T18:00:21.293Z,10.30
2023-03-20T18:02:42.856Z,10.18
2023-03-20T18:05:07.776Z,10.24
2023-03-20T18:07:29.351Z,10.33
2023-03-20T18:09:50.790Z,10.29
2023-03-20T18:12:15.794Z,10.23
2023-03-20T18:14:37.805Z,10.13
2023-03-20T18:16:59.235Z,10.02
2023-03-20T18:19:28.309Z,9.95
2023-03-20T18:21:49.787Z,9.85
2023-03-20T18:24:11.255Z,9.74
2023-03-20T18:26:32.751Z,9.83
2023-03-20T18:28:55.291Z,9.71
2023-03-20T18:31:19.134Z,9.72
2023-03-20T18:33:40.723Z,9.75
2023-03-20T18:36:02.405Z,9.73
2023-03-20T18:38:25.643Z,9.74
2023-03-20T18:40:47.578Z,9.67
2023-03-20T18:43:10.859Z,9.66
2023-03-20T18:45:32.654Z,9.64
2023-03-20T18:47:55.565Z,9.51
2023-03-20T18:50:30.604Z,9.58
2023-03-20T18:52:54.076Z,9.55
2023-03-20T18:55:16.266Z,9.48
2023-03-20T18:57:42.991Z,9.31
2023-03-20T19:00:14.561Z,9.27
2023-03-20T19:02:36.049Z,9.18
2023-03-20T19:04:57.544Z,9.23
2023-03-20T19:07:18.994Z,9.24
2023-03-20T19:09:40.620Z,9.23
2023-03-20T19:12:02.074Z,9.27
2023-03-20T19:14:25.738Z,9.24
2023-03-20T19:16:47.273Z,9.23
2023-03-20T19:19:11.866Z,9.19
2023-03-20T19:21:34.765Z,9.15
2023-03-20T19:24:01.300Z,9.12
2023-03-20T19:26:26.924Z,9.14
2023-03-20T19:28:49.084Z,9.15
2023-03-20T19:31:11.054Z,9.15
2023-03-20T19:33:33.350Z,9.07
2023-03-20T19:36:02.711Z,9.12
2023-03-20T19:38:25.379Z,9.16
2023-03-20T19:40:49.350Z,9.26
2023-03-20T19:43:11.313Z,9.24
2023-03-20T19:45:36.065Z,9.26
2023-03-20T19:47:58.028Z,9.36
2023-03-20T19:50:34.728Z,9.56
2023-03-20T19:52:57.647Z,9.87
2023-03-20T19:55:19.117Z,9.87
2023-03-20T19:57:40.653Z,10.14
2023-03-20T20:00:55.005Z,10.17
2023-03-20T20:02:46.076Z,10.32
2023-03-20T20:05:14.535Z,10.24
2023-03-20T20:08:09.074Z,10.30
2023-03-20T20:10:17.704Z,10.31
2023-03-20T20:12:39.238Z,10.49
2023-03-20T20:15:00.737Z,10.67
2023-03-20T20:17:22.183Z,10.74
2023-03-20T20:19:44.251Z,10.67
2023-03-20T20:22:26.009Z,10.64
2023-03-20T20:24:49.187Z,10.71
2023-03-20T20:27:19.331Z,10.70
2023-03-20T20:29:40.946Z,10.83
2023-03-20T20:32:02.569Z,10.85
2023-03-20T20:38:09.102Z,10.95
2023-03-20T20:39:48.198Z,11.06
2023-03-20T20:42:09.726Z,10.80
2023-03-20T20:44:31.292Z,10.61
2023-03-20T20:46:52.789Z,10.56
2023-03-20T20:49:19.585Z,10.60
2023-03-20T20:51:41.545Z,10.31
2023-03-20T20:54:03.029Z,10.52
2023-03-20T20:56:24.551Z,10.13
2023-03-20T20:58:46.050Z,10.42
2023-03-20T21:01:07.525Z,10.48
2023-03-20T21:03:29.181Z,10.60
2023-03-20T21:05:51.135Z,10.72
2023-03-20T21:08:14.166Z,10.74
2023-03-20T21:10:35.908Z,10.81
2023-03-20T21:12:59.794Z,10.73
2023-03-20T21:15:21.761Z,10.73
2023-03-20T21:17:57.853Z,10.43
2023-03-20T21:20:23.676Z,10.48
2023-03-20T21:22:45.397Z,10.22
2023-03-20T21:25:14.992Z,9.96
2023-03-20T21:27:37.064Z,9.89
2023-03-20T21:29:58.514Z,9.65
2023-03-20T21:32:21.109Z,9.52
2023-03-20T21:34:42.865Z,9.40
2023-03-20T21:38:04.006Z,9.38
2023-03-20T21:39:49.461Z,9.30
2023-03-20T21:42:11.438Z,9.27
2023-03-20T21:45:17.851Z,9.22
2023-03-20T21:48:17.224Z,9.25
2023-03-20T21:53:12.566Z,9.27
2023-03-20T21:56:27.748Z,9.39
2023-03-20T21:58:44.345Z,9.20
2023-03-20T22:04:06.314Z,9.37
2023-03-20T22:17:51.384Z,9.40
2023-03-20T22:23:07.532Z,9.17
2023-03-20T22:25:41.474Z,9.05
2023-03-20T22:28:15.651Z,9.25
2023-03-20T22:31:13.311Z,9.24
2023-03-20T22:34:09.219Z,9.42
2023-03-20T22:36:26.708Z,9.29
2023-03-20T22:46:45.208Z,9.34
2023-03-20T22:49:07.911Z,9.38
2023-03-20T22:51:36.825Z,9.22
2023-03-20T22:54:02.832Z,9.41
2023-03-20T22:56:24.582Z,9.56
2023-03-20T22:58:46.434Z,9.59
2023-03-20T23:01:09.323Z,9.49
2023-03-20T23:03:40.829Z,9.36
2023-03-20T23:06:20.308Z,9.37
2023-03-20T23:08:49.327Z,9.25
2023-03-20T23:11:13.933Z,9.20
2023-03-20T23:13:35.845Z,9.18
2023-03-20T23:15:57.324Z,9.07
2023-03-20T23:18:18.873Z,9.02
2023-03-20T23:20:40.916Z,9.01
2023-03-20T23:23:02.378Z,9.00
2023-03-20T23:25:38.162Z,8.99
2023-03-20T23:28:00.977Z,9.01
2023-03-20T23:30:25.319Z,8.97
2023-03-20T23:32:49.022Z,8.95
2023-03-20T23:35:10.892Z,8.95
2023-03-20T23:37:32.964Z,8.93
2023-03-20T23:39:54.424Z,8.95
2023-03-20T23:42:29.611Z,9.14
2023-03-20T23:44:56.324Z,9.28
2023-03-20T23:47:21.263Z,9.23
2023-03-20T23:49:45.849Z,9.26
2023-03-20T23:52:07.777Z,9.26
2023-03-20T23:54:29.485Z,9.22
2023-03-20T23:56:50.976Z,9.32
2023-03-20T23:59:21.079Z,9.25
